Time;durP1;ratioP1;P1;durP2;ratioP2;P2;SDS_P1;SDS_P2;PMS_P1;PMS_P2;Temp;Humidity;BMP_temperature;BMP_pressure;BME280_temperature;BME280_humidity;BME280_pressure;Samples;Min_cycle;Max_cycle;Signal;HPM_P1;HPM_P2
2023/10/31 00:01:30;;;;;;;20.20;11.35;;;12.40;99.90;;;;;;5042009;28;20024;-77
2023/10/31 00:03:55;;;;;;;17.48;11.15;;;12.40;99.90;;;;;;5042629;28;20029;-78
2023/10/31 00:06:21;;;;;;;22.17;12.82;;;12.40;99.90;;;;;;5041525;28;20052;-78
2023/10/31 00:08:47;;;;;;;23.40;12.70;;;12.40;99.90;;;;;;5042539;28;20025;-78
2023/10/31 00:11:15;;;;;;;22.50;12.02;;;12.40;99.90;;;;;;5040325;28;20752;-77
2023/10/31 00:13:42;;;;;;;26.38;13.80;;;12.40;99.90;;;;;;5040564;28;20026;-77
2023/10/31 00:16:09;;;;;;;18.50;12.32;;;12.40;99.90;;;;;;5035611;28;20097;-78
2023/10/31 00:19:03;;;;;;;22.25;12.88;;;12.30;99.90;;;;;;5035976;28;20021;-78
2023/10/31 00:21:29;;;;;;;20.70;12.82;;;12.40;99.90;;;;;;5021873;28;20052;-78
2023/10/31 00:25:24;;;;;;;22.63;13.35;;;12.40;99.90;;;;;;5036768;28;20720;-78
2023/10/31 00:27:43;;;;;;;21.85;13.57;;;12.50;99.90;;;;;;5013461;28;20037;-78
2023/10/31 00:30:09;;;;;;;25.73;13.75;;;12.50;99.90;;;;;;5002521;28;20037;-77
2023/10/31 00:32:35;;;;;;;23.25;13.52;;;12.50;99.90;;;;;;5028253;28;20049;-77
2023/10/31 00:35:03;;;;;;;27.48;14.77;;;12.50;99.90;;;;;;5039056;28;20060;-77
2023/10/31 00:37:48;;;;;;;26.88;14.57;;;12.50;99.90;;;;;;5033933;28;20033;-78
2023/10/31 00:41:26;;;;;;;;;;;;;;;;;;;;;
2023/10/31 00:47:21;;;;;;;25.92;14.02;;;12.50;99.90;;;;;;5038624;28;20072;-77
2023/10/31 00:49:47;;;;;;;22.77;14.68;;;12.50;99.90;;;;;;5036937;28;20022;-76
2023/10/31 00:52:13;;;;;;;28.77;15.65;;;12.40;99.90;;;;;;5040193;28;20076;-76
2023/10/31 00:54:38;;;;;;;25.73;15.45;;;12.40;99.90;;;;;;5040720;28;20089;-76
2023/10/31 00:57:09;;;;;;;27.58;15.18;;;12.40;99.90;;;;;;5038942;28;20085;-77
2023/10/31 00:59:35;;;;;;;28.85;15.48;;;12.50;99.90;;;;;;5038487;28;20117;-77
2023/10/31 01:02:01;;;;;;;27.45;15.30;;;12.40;99.90;;;;;;5039548;28;20025;-77
2023/10/31 01:04:27;;;;;;;27.83;16.05;;;12.40;99.90;;;;;;5040084;28;20017;-76
2023/10/31 01:06:52;;;;;;;33.25;16.73;;;12.50;99.90;;;;;;5040821;28;20915;-75
2023/10/31 01:09:18;;;;;;;28.17;15.95;;;12.50;99.90;;;;;;5039012;28;20044;-76
2023/10/31 01:11:43;;;;;;;36.05;16.90;;;12.40;99.90;;;;;;5038620;28;20078;-76
2023/10/31 01:14:12;;;;;;;31.05;15.82;;;12.40;99.90;;;;;;5039738;28;20021;-76
2023/10/31 01:16:39;;;;;;;33.97;18.83;;;12.50;99.90;;;;;;5039850;28;20023;-76
2023/10/31 01:19:05;;;;;;;39.58;20.30;;;12.50;99.90;;;;;;5041078;28;20038;-77
2023/10/31 01:21:30;;;;;;;35.70;18.48;;;12.50;99.90;;;;;;5036756;28;20018;-77
2023/10/31 01:23:56;;;;;;;30.70;16.75;;;12.50;99.90;;;;;;5038767;28;20056;-76
2023/10/31 01:26:21;;;;;;;32.35;17.60;;;12.50;99.90;;;;;;5040217;28;20037;-76
2023/10/31 01:28:47;;;;;;;30.40;17.70;;;12.50;99.90;;;;;;5039025;28;20029;-76
2023/10/31 01:31:19;;;;;;;34.90;18.23;;;12.50;99.90;;;;;;5038019;28;20025;-76
2023/10/31 01:33:45;;;;;;;29.67;16.15;;;12.50;99.90;;;;;;5038502;28;20501;-75
2023/10/31 01:36:12;;;;;;;29.75;17.00;;;12.50;99.90;;;;;;5038259;28;20026;-76
2023/10/31 01:38:41;;;;;;;29.45;16.52;;;12.50;99.90;;;;;;5037323;28;20029;-76
2023/10/31 01:41:07;;;;;;;30.00;16.05;;;12.50;99.90;;;;;;5037259;28;20466;-76
2023/10/31 01:43:37;;;;;;;29.42;16.23;;;12.50;99.90;;;;;;5038787;28;20030;-77
2023/10/31 01:46:12;;;;;;;28.88;15.93;;;12.50;99.90;;;;;;5037505;28;20033;-77
2023/10/31 01:48:38;;;;;;;26.52;14.32;;;12.50;99.90;;;;;;5037841;28;20029;-76
2023/10/31 01:51:04;;;;;;;29.05;15.18;;;12.50;99.90;;;;;;5039180;28;20021;-78
2023/10/31 01:53:33;;;;;;;27.05;15.00;;;12.50;99.90;;;;;;5036244;28;20021;-77
2023/10/31 01:56:03;;;;;;;24.83;14.15;;;12.50;99.90;;;;;;5039000;28;20029;-77
2023/10/31 01:58:39;;;;;;;36.63;15.52;;;12.50;99.90;;;;;;5037142;28;20503;-77
2023/10/31 02:01:47;;;;;;;29.23;16.20;;;12.50;99.90;;;;;;5038321;28;20022;-77
2023/10/31 02:04:13;;;;;;;26.13;15.32;;;12.50;99.90;;;;;;5037057;28;20116;-77
2023/10/31 02:06:42;;;;;;;32.38;17.30;;;12.50;99.90;;;;;;5021613;28;20125;-77
2023/10/31 02:09:29;;;;;;;36.42;23.42;;;12.50;99.90;;;;;;5036346;28;20076;-77
2023/10/31 02:12:03;;;;;;;29.02;14.90;;;12.50;99.90;;;;;;5036201;28;20049;-76
2023/10/31 02:14:29;;;;;;;27.00;13.60;;;12.50;99.90;;;;;;5037055;28;20037;-77
2023/10/31 02:16:54;;;;;;;26.88;15.23;;;12.50;99.90;;;;;;5039437;28;20029;-76
2023/10/31 02:19:20;;;;;;;24.50;13.77;;;12.60;99.90;;;;;;5036301;28;20359;-76
2023/10/31 02:21:46;;;;;;;33.05;14.68;;;12.50;99.90;;;;;;5040001;28;20044;-74
2023/10/31 02:24:12;;;;;;;25.27;14.25;;;12.50;99.90;;;;;;5039641;28;20068;-76
2023/10/31 02:26:37;;;;;;;32.97;15.50;;;12.50;99.90;;;;;;5036557;28;20030;-75
2023/10/31 02:29:04;;;;;;;29.05;15.30;;;12.40;99.90;;;;;;5035880;28;20033;-77
2023/10/31 02:31:30;;;;;;;33.50;15.20;;;12.50;99.90;;;;;;5036570;28;20045;-76
2023/10/31 02:33:56;;;;;;;28.63;15.23;;;12.40;99.90;;;;;;5038978;28;20057;-75
2023/10/31 02:36:23;;;;;;;29.00;14.90;;;12.40;99.90;;;;;;5036261;28;20034;-75
2023/10/31 02:38:48;;;;;;;30.17;14.27;;;12.40;99.90;;;;;;5039337;28;20107;-75
2023/10/31 02:41:15;;;;;;;28.90;14.65;;;12.40;99.90;;;;;;5038806;28;20124;-75
2023/10/31 02:43:41;;;;;;;30.05;15.73;;;12.50;99.90;;;;;;5039123;28;20031;-76
2023/10/31 02:46:12;;;;;;;30.73;15.77;;;12.40;99.90;;;;;;5036920;28;20032;-76
2023/10/31 02:48:39;;;;;;;27.50;14.43;;;12.40;99.90;;;;;;5037213;28;20076;-76
2023/10/31 02:51:06;;;;;;;31.08;15.40;;;12.40;99.90;;;;;;5038436;28;20037;-76
2023/10/31 02:53:32;;;;;;;31.20;15.35;;;12.40;99.90;;;;;;5038139;28;20041;-77
2023/10/31 02:55:57;;;;;;;30.02;15.02;;;12.40;99.90;;;;;;5037930;28;20025;-77
2023/10/31 02:58:23;;;;;;;28.83;15.40;;;12.50;99.90;;;;;;5039293;28;20467;-76
2023/10/31 03:00:49;;;;;;;32.15;14.80;;;12.40;99.90;;;;;;5037832;28;20025;-75
2023/10/31 03:03:15;;;;;;;29.33;15.05;;;12.50;99.90;;;;;;5038090;28;20025;-76
2023/10/31 03:05:41;;;;;;;32.05;15.70;;;12.50;99.90;;;;;;5039244;28;20025;-76
2023/10/31 03:08:08;;;;;;;31.17;15.90;;;12.50;99.90;;;;;;5039576;28;20071;-76
2023/10/31 03:10:33;;;;;;;33.50;16.00;;;12.50;99.90;;;;;;5037427;28;20030;-76
2023/10/31 03:12:59;;;;;;;37.22;16.80;;;12.50;99.90;;;;;;5039832;28;20113;-76
2023/10/31 03:15:25;;;;;;;34.53;16.85;;;12.50;99.90;;;;;;5041543;28;20029;-76
2023/10/31 03:17:51;;;;;;;33.33;15.82;;;12.50;99.90;;;;;;5042664;28;20158;-76
2023/10/31 03:20:16;;;;;;;36.88;17.90;;;12.50;99.90;;;;;;5039453;28;20037;-75
2023/10/31 03:22:45;;;;;;;37.25;17.85;;;12.50;99.90;;;;;;5039736;28;20022;-75
2023/10/31 03:25:11;;;;;;;43.47;18.45;;;12.50;99.90;;;;;;5041594;28;20033;-76
2023/10/31 03:27:39;;;;;;;43.88;19.70;;;12.40;99.90;;;;;;5041985;28;20022;-75
2023/10/31 03:30:05;;;;;;;39.58;18.80;;;12.50;99.90;;;;;;5040784;28;20029;-75
2023/10/31 03:32:30;;;;;;;46.22;19.20;;;12.50;99.90;;;;;;5041597;28;20034;-76
2023/10/31 03:34:56;;;;;;;46.08;19.88;;;12.50;99.90;;;;;;5041260;28;20381;-75
2023/10/31 03:37:22;;;;;;;50.08;21.00;;;12.50;99.90;;;;;;5041203;28;20147;-76
2023/10/31 03:39:47;;;;;;;42.65;19.75;;;12.50;99.90;;;;;;5041445;28;20067;-77
2023/10/31 03:42:13;;;;;;;52.80;22.17;;;12.40;99.90;;;;;;5040636;28;20078;-78
2023/10/31 03:44:38;;;;;;;50.22;21.05;;;12.50;99.90;;;;;;5042529;28;20025;-76
2023/10/31 03:47:05;;;;;;;47.20;20.55;;;12.40;99.90;;;;;;5042900;28;20061;-76
2023/10/31 03:49:30;;;;;;;44.97;19.85;;;12.50;99.90;;;;;;5042793;28;20359;-77
2023/10/31 03:51:56;;;;;;;49.67;21.45;;;12.40;99.90;;;;;;5042954;28;20091;-77
2023/10/31 03:54:22;;;;;;;53.63;22.77;;;12.50;99.90;;;;;;5042374;28;20045;-78
2023/10/31 03:56:48;;;;;;;52.80;22.50;;;12.50;99.90;;;;;;5041186;28;20061;-76
2023/10/31 03:59:14;;;;;;;55.75;22.60;;;12.50;99.90;;;;;;5040908;28;20068;-75
2023/10/31 04:01:40;;;;;;;53.75;22.38;;;12.50;99.90;;;;;;5041051;28;20093;-76
2023/10/31 04:04:06;;;;;;;51.35;22.50;;;12.50;99.90;;;;;;5042916;28;20021;-75
2023/10/31 04:06:32;;;;;;;52.55;22.75;;;12.50;99.90;;;;;;5042015;28;20430;-76
2023/10/31 04:08:57;;;;;;;54.45;22.33;;;12.50;99.90;;;;;;5041102;28;20052;-76
2023/10/31 04:11:23;;;;;;;55.88;22.05;;;12.50;99.90;;;;;;5041759;28;20080;-76
2023/10/31 04:13:49;;;;;;;55.95;22.80;;;12.50;99.90;;;;;;5042455;28;20025;-77
2023/10/31 04:16:15;;;;;;;52.72;21.65;;;12.50;99.90;;;;;;5042168;28;20427;-78
2023/10/31 04:18:40;;;;;;;71.35;24.38;;;12.50;99.90;;;;;;5042059;28;20073;-78
2023/10/31 04:21:07;;;;;;;74.68;24.90;;;12.40;99.90;;;;;;5041637;28;20076;-80
2023/10/31 04:23:33;;;;;;;59.53;22.40;;;12.50;99.90;;;;;;5039385;28;20029;-78
2023/10/31 04:25:59;;;;;;;72.45;24.30;;;12.40;99.90;;;;;;5041509;28;20108;-81
2023/10/31 04:28:25;;;;;;;75.18;23.33;;;12.50;99.90;;;;;;5041615;28;20044;-78
2023/10/31 04:30:50;;;;;;;104.38;24.30;;;12.40;99.90;;;;;;5042375;28;20030;-80
2023/10/31 04:33:16;;;;;;;81.07;23.13;;;12.40;99.90;;;;;;5042526;28;20060;-74
2023/10/31 04:35:41;;;;;;;180.80;25.45;;;12.40;99.90;;;;;;5042302;28;20063;-77
2023/10/31 04:38:07;;;;;;;114.78;22.52;;;12.40;99.90;;;;;;5039040;28;20080;-76
2023/10/31 04:40:32;;;;;;;81.20;20.45;;;12.40;99.90;;;;;;5040597;28;20037;-78
2023/10/31 04:43:00;;;;;;;115.00;21.92;;;12.40;99.90;;;;;;5042504;28;20029;-78
2023/10/31 04:45:26;;;;;;;109.90;23.33;;;12.40;99.90;;;;;;5041724;28;20025;-78
2023/10/31 04:47:54;;;;;;;129.68;24.17;;;12.50;99.90;;;;;;5041733;28;20085;-78
2023/10/31 04:50:20;;;;;;;67.28;18.75;;;12.50;99.90;;;;;;5041340;28;20086;-78
2023/10/31 04:52:46;;;;;;;97.32;20.65;;;12.40;99.90;;;;;;5039925;28;20038;-78
2023/10/31 04:55:11;;;;;;;72.35;18.13;;;12.50;99.90;;;;;;5041631;28;20116;-78
2023/10/31 04:57:40;;;;;;;103.13;20.70;;;12.40;99.90;;;;;;5041164;28;20378;-80
2023/10/31 05:00:08;;;;;;;89.10;20.67;;;12.40;99.90;;;;;;5039297;28;20037;-79
2023/10/31 05:02:34;;;;;;;187.65;23.40;;;12.40;99.90;;;;;;5040114;28;20018;-80
2023/10/31 05:05:00;;;;;;;305.17;26.63;;;12.40;99.90;;;;;;5040627;28;20056;-77
2023/10/31 05:07:25;;;;;;;58.58;19.45;;;12.40;99.90;;;;;;5041000;28;20030;-76
2023/10/31 05:09:51;;;;;;;61.83;20.05;;;12.30;99.90;;;;;;5041464;28;20045;-74
2023/10/31 05:12:16;;;;;;;63.33;23.23;;;12.30;99.90;;;;;;5041260;28;20474;-77
2023/10/31 05:14:42;;;;;;;78.75;25.67;;;12.30;99.90;;;;;;5040864;28;20462;-77
2023/10/31 05:17:08;;;;;;;75.93;25.48;;;12.30;99.90;;;;;;5039345;28;20093;-76
2023/10/31 05:19:33;;;;;;;65.68;23.70;;;12.20;99.90;;;;;;5040205;28;20036;-74
2023/10/31 05:21:59;;;;;;;72.88;27.25;;;12.30;99.90;;;;;;5040783;28;20025;-78
2023/10/31 05:24:24;;;;;;;67.57;26.88;;;12.30;99.90;;;;;;5041031;28;20025;-77
2023/10/31 05:26:53;;;;;;;71.07;28.33;;;12.30;99.90;;;;;;5039926;28;20462;-75
2023/10/31 05:29:18;;;;;;;67.18;28.77;;;12.30;99.90;;;;;;5039371;28;20395;-76
2023/10/31 05:31:44;;;;;;;67.38;27.17;;;12.30;99.90;;;;;;5040499;28;20051;-73
2023/10/31 05:34:10;;;;;;;66.82;29.30;;;12.30;99.90;;;;;;5039317;28;20030;-74
2023/10/31 05:36:35;;;;;;;72.28;30.23;;;12.30;99.90;;;;;;5039967;28;20155;-73
2023/10/31 05:39:01;;;;;;;68.60;30.15;;;12.30;99.90;;;;;;5041108;28;20029;-75
2023/10/31 05:41:26;;;;;;;64.88;29.00;;;12.30;99.90;;;;;;5039714;28;20099;-78
2023/10/31 05:43:52;;;;;;;66.25;29.42;;;12.20;99.90;;;;;;5038996;28;20060;-77
2023/10/31 05:46:18;;;;;;;64.80;29.63;;;12.20;99.90;;;;;;5040504;28;20073;-76
2023/10/31 05:48:45;;;;;;;67.57;31.13;;;12.10;99.90;;;;;;5040100;28;20040;-77
2023/10/31 05:51:16;;;;;;;62.50;29.35;;;12.20;99.90;;;;;;5040041;28;20030;-78
2023/10/31 05:53:44;;;;;;;62.70;27.52;;;12.10;99.90;;;;;;5041111;28;20026;-78
2023/10/31 05:56:11;;;;;;;54.42;23.95;;;12.10;99.90;;;;;;5039552;28;20044;-73
2023/10/31 05:58:38;;;;;;;48.90;22.88;;;12.00;99.90;;;;;;5040381;28;20026;-75
2023/10/31 06:01:04;;;;;;;24.42;12.00;;;12.00;99.90;;;;;;5040656;28;20035;-74
2023/10/31 06:03:30;;;;;;;20.85;11.00;;;11.90;99.90;;;;;;5039350;28;20140;-75
2023/10/31 06:05:55;;;;;;;12.32;5.97;;;11.80;99.90;;;;;;5039622;28;20041;-74
2023/10/31 06:08:21;;;;;;;9.38;5.40;;;11.70;99.90;;;;;;5036338;28;20365;-75
2023/10/31 06:10:46;;;;;;;6.57;2.83;;;11.60;99.90;;;;;;5039263;28;20033;-76
2023/10/31 06:13:12;;;;;;;4.07;2.50;;;11.40;99.90;;;;;;5039220;28;20056;-76
2023/10/31 06:15:38;;;;;;;4.25;1.92;;;11.30;99.90;;;;;;5039534;28;20031;-76
2023/10/31 06:18:03;;;;;;;2.80;1.60;;;11.10;99.90;;;;;;5039896;28;20100;-78
2023/10/31 06:20:29;;;;;;;2.35;1.45;;;11.10;99.90;;;;;;5039550;28;20033;-80
2023/10/31 06:22:55;;;;;;;4.20;0.93;;;11.00;99.90;;;;;;5041343;28;20036;-78
2023/10/31 06:25:20;;;;;;;1.63;0.82;;;11.00;99.90;;;;;;5039981;28;20029;-76
2023/10/31 06:27:46;;;;;;;2.25;0.88;;;10.90;99.90;;;;;;5040105;28;20062;-74
2023/10/31 06:30:12;;;;;;;5.57;0.82;;;10.80;99.90;;;;;;5037577;28;20040;-78
2023/10/31 06:32:40;;;;;;;2.15;0.70;;;10.80;99.90;;;;;;5033298;28;20045;-77
2023/10/31 06:35:06;;;;;;;2.75;0.70;;;10.80;99.90;;;;;;5036353;28;20026;-79
2023/10/31 06:37:32;;;;;;;1.15;0.70;;;10.70;99.90;;;;;;5036658;28;20021;-74
2023/10/31 06:39:58;;;;;;;1.50;0.60;;;10.80;99.90;;;;;;5040747;28;20048;-72
2023/10/31 06:42:23;;;;;;;0.88;0.68;;;10.60;99.90;;;;;;5040527;28;20049;-73
2023/10/31 06:44:49;;;;;;;1.80;0.80;;;10.60;99.90;;;;;;5040808;28;20049;-75
2023/10/31 06:47:14;;;;;;;1.60;0.60;;;10.60;99.90;;;;;;5039691;28;20037;-75
2023/10/31 06:49:40;;;;;;;0.90;0.70;;;10.60;99.90;;;;;;5043663;28;20075;-74
2023/10/31 06:52:05;;;;;;;2.70;0.93;;;10.50;99.90;;;;;;5044315;28;20038;-74
2023/10/31 06:54:31;;;;;;;1.27;0.80;;;10.50;99.90;;;;;;5045162;28;20018;-75
2023/10/31 06:56:57;;;;;;;1.50;0.80;;;10.50;99.90;;;;;;5045352;28;20037;-81
2023/10/31 06:59:23;;;;;;;4.57;1.20;;;10.50;99.90;;;;;;5042669;28;20081;-73
2023/10/31 07:01:49;;;;;;;1.38;1.00;;;10.50;99.90;;;;;;5030879;28;20126;-74
2023/10/31 07:04:14;;;;;;;2.90;0.90;;;10.40;99.90;;;;;;5032799;28;20071;-79
2023/10/31 07:06:40;;;;;;;2.63;1.02;;;10.40;99.90;;;;;;5037243;28;20036;-72
2023/10/31 07:09:06;;;;;;;3.88;1.05;;;10.40;99.90;;;;;;5031716;28;20049;-75
2023/10/31 07:11:33;;;;;;;2.20;1.17;;;10.30;99.90;;;;;;5036286;28;20036;-76
2023/10/31 07:14:03;;;;;;;5.03;1.20;;;10.30;99.90;;;;;;5040200;28;20029;-74
2023/10/31 07:16:30;;;;;;;6.57;1.20;;;10.20;99.90;;;;;;5041224;28;20135;-76
2023/10/31 07:18:55;;;;;;;6.30;1.50;;;10.20;99.90;;;;;;5039950;28;20022;-78
2023/10/31 07:21:21;;;;;;;3.38;1.20;;;10.10;99.90;;;;;;5039450;28;20028;-77
2023/10/31 07:23:47;;;;;;;2.20;1.10;;;10.20;99.90;;;;;;5043189;28;20026;-73
2023/10/31 07:26:12;;;;;;;4.18;1.60;;;10.10;99.90;;;;;;5043918;28;20030;-73
2023/10/31 07:28:38;;;;;;;4.35;1.25;;;10.10;99.90;;;;;;5043101;28;20018;-75
2023/10/31 07:31:04;;;;;;;3.35;1.15;;;10.10;99.90;;;;;;5044823;28;20026;-76
2023/10/31 07:33:30;;;;;;;2.85;1.30;;;10.10;99.90;;;;;;5038215;28;20051;-76
2023/10/31 07:35:56;;;;;;;11.52;1.20;;;10.10;99.90;;;;;;5040618;28;20026;-75
2023/10/31 07:38:22;;;;;;;3.22;1.60;;;10.10;99.90;;;;;;5039811;28;20049;-76
2023/10/31 07:40:48;;;;;;;2.22;1.40;;;10.10;99.90;;;;;;5038779;28;20045;-79
2023/10/31 07:43:14;;;;;;;3.63;1.45;;;10.10;99.90;;;;;;5040761;28;20030;-75
2023/10/31 07:45:39;;;;;;;3.33;1.02;;;10.00;99.90;;;;;;5036972;28;20026;-74
2023/10/31 07:48:05;;;;;;;4.03;1.23;;;10.00;99.90;;;;;;5042706;28;20035;-78
2023/10/31 07:50:33;;;;;;;2.85;1.48;;;10.00;99.90;;;;;;5039449;28;20030;-73
2023/10/31 07:52:59;;;;;;;4.88;2.10;;;9.90;99.90;;;;;;5043381;28;20087;-73
2023/10/31 07:55:25;;;;;;;3.40;1.05;;;9.90;99.90;;;;;;5040721;28;20064;-75
2023/10/31 07:57:51;;;;;;;4.57;1.90;;;9.90;99.90;;;;;;5039543;28;20029;-76
2023/10/31 08:00:16;;;;;;;4.45;1.20;;;9.90;99.90;;;;;;5039753;28;20021;-74
2023/10/31 08:02:42;;;;;;;5.15;1.10;;;9.80;99.90;;;;;;5040925;28;20026;-74
2023/10/31 08:05:08;;;;;;;2.47;1.33;;;9.80;99.90;;;;;;5039146;28;20014;-72
2023/10/31 08:07:34;;;;;;;2.88;1.10;;;9.80;99.90;;;;;;5040304;28;20040;-77
2023/10/31 08:09:59;;;;;;;3.70;1.20;;;9.80;99.90;;;;;;5038599;28;20026;-75
2023/10/31 08:12:25;;;;;;;6.50;1.10;;;9.70;99.90;;;;;;5043527;28;20041;-78
2023/10/31 08:14:51;;;;;;;1.40;1.02;;;9.70;99.90;;;;;;5038854;28;20034;-74
2023/10/31 08:17:17;;;;;;;5.10;1.40;;;9.80;99.90;;;;;;5036009;28;20489;-74
2023/10/31 08:19:43;;;;;;;5.65;1.40;;;9.70;99.90;;;;;;5029973;28;20042;-72
2023/10/31 08:22:08;;;;;;;1.83;1.17;;;9.70;99.90;;;;;;5033105;28;20029;-72
2023/10/31 08:24:36;;;;;;;4.13;1.15;;;9.80;99.90;;;;;;5031619;28;20171;-71
2023/10/31 08:27:04;;;;;;;2.53;1.05;;;9.70;99.90;;;;;;5036799;28;20034;-76
2023/10/31 08:29:30;;;;;;;5.63;1.55;;;9.70;99.90;;;;;;5037161;28;20037;-79
2023/10/31 08:31:55;;;;;;;9.07;1.73;;;9.80;99.90;;;;;;5038954;28;20036;-76
2023/10/31 08:34:21;;;;;;;5.50;1.90;;;9.80;99.90;;;;;;5035875;28;20026;-74
2023/10/31 08:36:46;;;;;;;9.82;2.58;;;9.70;99.90;;;;;;5033449;28;20025;-75
2023/10/31 08:39:12;;;;;;;6.07;2.17;;;9.80;99.90;;;;;;5031917;28;20051;-76
2023/10/31 08:41:55;;;;;;;6.72;2.47;;;9.80;99.90;;;;;;5036835;28;20045;-75
2023/10/31 08:44:22;;;;;;;4.70;1.90;;;9.80;99.90;;;;;;5036230;28;20037;-77
2023/10/31 08:46:48;;;;;;;5.25;2.10;;;9.80;99.90;;;;;;5039858;28;20040;-75
2023/10/31 08:49:15;;;;;;;8.82;2.40;;;9.80;99.90;;;;;;5035464;28;20049;-76
2023/10/31 08:51:41;;;;;;;8.32;2.45;;;9.90;99.90;;;;;;5036692;28;20046;-77
2023/10/31 08:54:08;;;;;;;3.92;1.85;;;9.90;99.90;;;;;;5040564;28;20025;-76
2023/10/31 08:56:34;;;;;;;6.07;1.90;;;9.90;99.90;;;;;;5038945;28;20529;-76
2023/10/31 08:59:00;;;;;;;5.30;2.67;;;9.90;99.90;;;;;;5039528;28;20034;-73
2023/10/31 09:01:28;;;;;;;5.90;2.95;;;10.00;99.90;;;;;;5036062;28;20053;-72
2023/10/31 09:03:58;;;;;;;8.15;3.17;;;10.00;99.90;;;;;;5038369;28;20021;-75
2023/10/31 09:06:24;;;;;;;10.52;3.72;;;10.00;99.90;;;;;;5033898;28;20068;-77
2023/10/31 09:08:50;;;;;;;5.93;3.50;;;10.00;99.90;;;;;;5031615;28;20049;-73
2023/10/31 09:11:15;;;;;;;6.65;2.80;;;10.00;99.90;;;;;;5031481;28;20136;-74
2023/10/31 09:13:41;;;;;;;5.13;2.30;;;10.00;99.90;;;;;;5034600;28;20060;-73
2023/10/31 09:16:07;;;;;;;5.68;2.33;;;10.10;99.90;;;;;;5037836;28;20021;-75
2023/10/31 09:18:32;;;;;;;4.40;2.10;;;10.00;99.90;;;;;;5033022;28;20070;-77
2023/10/31 09:20:58;;;;;;;2.63;1.27;;;10.10;99.90;;;;;;5033580;28;20029;-75
2023/10/31 09:23:24;;;;;;;3.78;1.85;;;10.10;99.90;;;;;;5039518;28;20052;-74
2023/10/31 09:25:49;;;;;;;3.72;1.52;;;10.10;99.90;;;;;;5034294;28;20030;-70
2023/10/31 09:28:15;;;;;;;2.78;1.10;;;10.10;99.90;;;;;;5039334;28;20029;-74
2023/10/31 09:30:41;;;;;;;2.17;1.40;;;10.10;99.90;;;;;;5035957;28;20045;-75
2023/10/31 09:33:06;;;;;;;1.90;1.10;;;10.10;99.90;;;;;;5040066;28;20113;-73
2023/10/31 09:35:32;;;;;;;2.17;0.70;;;10.10;99.90;;;;;;5041494;28;20022;-74
2023/10/31 09:37:58;;;;;;;1.25;0.75;;;10.10;99.90;;;;;;5040637;28;20068;-71
2023/10/31 09:40:24;;;;;;;4.53;1.55;;;10.10;99.90;;;;;;5036731;28;20040;-80
2023/10/31 09:42:49;;;;;;;2.38;1.13;;;10.20;99.90;;;;;;5039350;28;21902;-74
2023/10/31 09:45:15;;;;;;;3.92;1.70;;;10.10;99.90;;;;;;5041095;28;20042;-74
2023/10/31 09:47:44;;;;;;;3.05;1.40;;;10.10;99.90;;;;;;5038719;28;20034;-74
2023/10/31 09:50:11;;;;;;;1.95;1.27;;;10.20;99.90;;;;;;5038649;28;20123;-74
2023/10/31 09:52:37;;;;;;;1.95;1.35;;;10.20;99.90;;;;;;5035014;28;20962;-76
2023/10/31 09:55:03;;;;;;;4.13;1.63;;;10.20;99.90;;;;;;5034778;28;20029;-75
2023/10/31 09:57:29;;;;;;;2.22;1.50;;;10.20;99.90;;;;;;5039679;28;20056;-76
2023/10/31 09:59:55;;;;;;;3.90;1.65;;;10.30;99.90;;;;;;5041059;28;20456;-80
2023/10/31 10:02:20;;;;;;;5.25;1.85;;;10.30;99.90;;;;;;5037625;28;20211;-79
2023/10/31 10:04:48;;;;;;;3.67;2.10;;;10.30;99.90;;;;;;5039575;28;20109;-76
2023/10/31 10:07:17;;;;;;;5.60;2.78;;;10.30;99.90;;;;;;5040539;28;20033;-79
2023/10/31 10:09:44;;;;;;;6.63;3.00;;;10.40;99.90;;;;;;5039301;28;20029;-80
2023/10/31 10:12:13;;;;;;;5.30;3.00;;;10.40;99.90;;;;;;5040759;28;20041;-82
2023/10/31 10:14:39;;;;;;;8.25;3.47;;;10.50;99.90;;;;;;5027862;28;20044;-79
2023/10/31 10:17:16;;;;;;;8.25;3.85;;;10.50;99.90;;;;;;5035621;28;20168;-74
2023/10/31 10:19:41;;;;;;;6.72;3.17;;;10.60;99.90;;;;;;5038767;28;20060;-75
2023/10/31 10:22:08;;;;;;;7.90;4.20;;;10.50;99.90;;;;;;5039665;28;20030;-74
2023/10/31 10:24:34;;;;;;;10.48;5.68;;;10.60;99.90;;;;;;5039465;28;20021;-77
2023/10/31 10:27:00;;;;;;;12.73;6.53;;;10.60;99.90;;;;;;5032945;28;20029;-75
2023/10/31 10:29:26;;;;;;;18.85;6.50;;;10.70;99.90;;;;;;5036927;28;20025;-77
2023/10/31 10:31:52;;;;;;;9.95;6.20;;;10.70;99.90;;;;;;5038207;28;20044;-76
2023/10/31 10:34:18;;;;;;;10.50;5.22;;;10.80;99.90;;;;;;5028185;28;20021;-78
2023/10/31 10:36:51;;;;;;;10.80;4.82;;;10.80;99.90;;;;;;5021805;28;20025;-78
2023/10/31 10:39:22;;;;;;;8.67;4.70;;;10.90;99.90;;;;;;5034640;28;20026;-75
2023/10/31 10:41:58;;;;;;;6.90;4.32;;;11.00;99.90;;;;;;5038105;28;20084;-75
2023/10/31 10:44:38;;;;;;;9.45;4.40;;;11.00;99.90;;;;;;5029556;28;20132;-76
2023/10/31 10:47:06;;;;;;;10.23;4.13;;;10.90;99.90;;;;;;5037927;28;20056;-75
2023/10/31 10:49:36;;;;;;;7.82;4.35;;;11.00;99.90;;;;;;5028267;28;20021;-77
2023/10/31 10:52:45;;;;;;;11.35;5.10;;;11.10;99.90;;;;;;5033769;28;20071;-76
2023/10/31 10:55:32;;;;;;;14.32;5.30;;;11.10;99.90;;;;;;5036834;28;21071;-75
2023/10/31 10:58:02;;;;;;;13.27;6.20;;;11.20;99.90;;;;;;5038975;28;20022;-76
2023/10/31 11:00:28;;;;;;;12.38;5.18;;;11.20;99.90;;;;;;5035159;28;20030;-74
2023/10/31 11:02:56;;;;;;;13.07;5.47;;;11.20;99.90;;;;;;5039353;28;20625;-74
2023/10/31 11:05:23;;;;;;;12.65;4.75;;;11.10;99.90;;;;;;5038326;28;20081;-76
2023/10/31 11:07:51;;;;;;;9.13;5.30;;;11.20;99.90;;;;;;5030516;28;20147;-74
2023/10/31 11:10:18;;;;;;;13.48;6.75;;;11.30;99.90;;;;;;5033296;28;20033;-75
2023/10/31 11:12:44;;;;;;;15.23;4.78;;;11.20;99.90;;;;;;5030101;28;20093;-75
2023/10/31 11:15:14;;;;;;;10.93;4.40;;;11.30;99.90;;;;;;5031480;28;20037;-73
2023/10/31 11:17:42;;;;;;;10.57;4.35;;;11.40;99.90;;;;;;5038667;28;20093;-74
2023/10/31 11:20:11;;;;;;;12.70;5.78;;;11.40;99.90;;;;;;5038213;28;20037;-73
2023/10/31 11:22:42;;;;;;;9.40;5.00;;;11.50;99.90;;;;;;5018531;28;20044;-75
2023/10/31 11:25:15;;;;;;;9.85;4.50;;;11.50;99.90;;;;;;5018272;28;20053;-76
2023/10/31 11:27:41;;;;;;;6.35;3.90;;;11.50;99.90;;;;;;5030667;28;20025;-75
2023/10/31 11:30:29;;;;;;;6.00;3.60;;;11.50;99.90;;;;;;5037968;28;20510;-76
2023/10/31 11:32:58;;;;;;;5.63;3.33;;;11.50;99.90;;;;;;5037790;28;20116;-78
2023/10/31 11:35:24;;;;;;;5.28;3.33;;;11.50;99.90;;;;;;5038977;28;20029;-74
2023/10/31 11:38:03;;;;;;;5.22;3.35;;;11.50;99.90;;;;;;5042069;28;20037;-76
2023/10/31 11:40:31;;;;;;;7.75;3.45;;;11.40;99.90;;;;;;5037211;28;20427;-75
2023/10/31 11:42:59;;;;;;;5.95;3.60;;;11.50;99.90;;;;;;5024510;28;20030;-75
2023/10/31 11:45:44;;;;;;;7.25;3.80;;;11.40;99.90;;;;;;5024628;28;20037;-75
2023/10/31 11:48:10;;;;;;;10.40;7.22;;;11.50;99.90;;;;;;5037760;28;20049;-77
2023/10/31 11:50:37;;;;;;;8.82;4.43;;;11.50;99.90;;;;;;5037991;28;20081;-75
2023/10/31 11:53:08;;;;;;;7.68;4.70;;;11.60;99.90;;;;;;5033367;28;20470;-75
2023/10/31 11:55:40;;;;;;;9.90;5.65;;;11.70;99.90;;;;;;5037814;28;20085;-76
2023/10/31 11:58:19;;;;;;;12.43;5.50;;;11.90;99.90;;;;;;5037699;28;20049;-75
2023/10/31 12:00:50;;;;;;;9.38;4.90;;;12.10;99.90;;;;;;5039707;28;20036;-73
2023/10/31 12:03:20;;;;;;;7.18;4.13;;;12.10;99.90;;;;;;5035487;28;20065;-74
2023/10/31 12:06:03;;;;;;;6.65;4.00;;;12.10;99.90;;;;;;5039232;28;20406;-75
2023/10/31 12:08:39;;;;;;;8.43;4.18;;;12.10;99.90;;;;;;5041800;28;20018;-74
2023/10/31 12:11:05;;;;;;;10.30;3.90;;;12.10;99.90;;;;;;5038627;28;20498;-74
2023/10/31 12:13:31;;;;;;;11.85;4.47;;;12.10;99.90;;;;;;5037224;28;20060;-74
2023/10/31 12:15:56;;;;;;;8.73;4.45;;;12.00;99.90;;;;;;5040922;28;20034;-75
2023/10/31 12:18:22;;;;;;;10.77;4.53;;;12.00;99.90;;;;;;5023246;28;20033;-77
2023/10/31 12:20:51;;;;;;;8.75;3.22;;;11.90;99.90;;;;;;5017703;28;20038;-78
2023/10/31 12:23:17;;;;;;;8.38;4.07;;;11.80;99.90;;;;;;5035049;28;20083;-80
2023/10/31 12:25:50;;;;;;;12.85;3.78;;;11.80;99.90;;;;;;5035881;28;20041;-82
2023/10/31 12:28:20;;;;;;;5.07;3.38;;;11.60;99.90;;;;;;5035045;28;20111;-81
2023/10/31 12:30:50;;;;;;;2.38;1.45;;;11.50;99.90;;;;;;5036190;28;20034;-76
2023/10/31 12:33:16;;;;;;;6.93;1.00;;;11.30;99.90;;;;;;5035398;28;20033;-76
2023/10/31 12:35:43;;;;;;;1.35;0.80;;;11.20;99.90;;;;;;5041393;28;20030;-74
2023/10/31 12:38:13;;;;;;;5.30;1.35;;;11.00;99.90;;;;;;5035103;28;20443;-77
2023/10/31 12:40:41;;;;;;;4.07;1.13;;;10.80;99.90;;;;;;5039673;28;20500;-77
2023/10/31 12:43:06;;;;;;;3.00;1.15;;;10.70;99.90;;;;;;5040961;28;20025;-79
2023/10/31 12:45:32;;;;;;;2.50;0.80;;;10.60;99.90;;;;;;5039149;28;20079;-75